createdAt,value
2023-04-03T00:00:37.446Z,7.57
2023-04-03T00:03:04.561Z,7.60
2023-04-03T00:05:31.427Z,7.75
2023-04-03T00:07:58.259Z,7.07
2023-04-03T00:10:25.109Z,7.20
2023-04-03T00:12:51.937Z,7.13
2023-04-03T00:15:18.812Z,7.65
2023-04-03T00:17:46.715Z,7.72
2023-04-03T00:20:13.625Z,6.80
2023-04-03T00:22:40.864Z,7.63
2023-04-03T00:25:08.344Z,7.88
2023-04-03T00:27:38.072Z,7.85
2023-04-03T00:30:05.624Z,7.55
2023-04-03T00:32:32.772Z,7.72
2023-04-03T00:34:59.654Z,7.85
2023-04-03T00:37:26.541Z,7.88
2023-04-03T00:39:53.390Z,8.32
2023-04-03T00:42:20.215Z,8.35
2023-04-03T00:44:46.964Z,7.75
2023-04-03T00:47:18.402Z,8.13
2023-04-03T00:49:46.567Z,7.78
2023-04-03T00:52:18.823Z,8.43
2023-04-03T00:54:47.288Z,8.43
2023-04-03T00:57:14.664Z,8.13
2023-04-03T00:59:46.025Z,8.15
2023-04-03T01:02:12.836Z,8.15
2023-04-03T01:04:42.912Z,8.57
2023-04-03T01:07:13.395Z,8.02
2023-04-03T01:09:41.127Z,8.20
2023-04-03T01:12:38.894Z,8.20
2023-04-03T01:15:15.672Z,7.88
2023-04-03T01:17:46.988Z,8.30
2023-04-03T01:20:32.602Z,7.85
2023-04-03T01:23:12.094Z,8.70
2023-04-03T01:25:46.376Z,8.45
2023-04-03T01:28:17.272Z,8.30
2023-04-03T01:31:10.484Z,8.02
2023-04-03T01:33:38.837Z,7.63
2023-04-03T01:36:06.493Z,8.35
2023-04-03T01:38:33.492Z,7.93
2023-04-03T01:41:00.612Z,8.20
2023-04-03T01:43:27.465Z,8.55
2023-04-03T01:45:55.760Z,7.95
2023-04-03T01:48:22.989Z,7.97
2023-04-03T01:50:49.833Z,8.38
2023-04-03T01:53:16.618Z,8.02
2023-04-03T01:55:43.559Z,8.25
2023-04-03T01:58:10.451Z,8.02
2023-04-03T02:00:37.786Z,8.00
2023-04-03T02:03:04.973Z,8.32
2023-04-03T02:05:31.944Z,7.72
2023-04-03T02:07:58.776Z,8.27
2023-04-03T02:10:25.892Z,9.18
2023-04-03T02:12:52.854Z,9.38
2023-04-03T02:15:19.750Z,8.30
2023-04-03T02:17:46.636Z,8.32
2023-04-03T02:20:13.539Z,8.73
2023-04-03T02:22:40.663Z,8.40
2023-04-03T02:25:07.781Z,8.43
2023-04-03T02:27:34.671Z,8.55
2023-04-03T02:30:01.498Z,8.98
2023-04-03T02:32:28.449Z,9.55
2023-04-03T02:34:55.310Z,8.48
2023-04-03T02:37:22.237Z,9.63
2023-04-03T02:39:49.054Z,9.00
2023-04-03T02:42:16.065Z,8.68
2023-04-03T02:44:42.980Z,9.40
2023-04-03T02:47:09.829Z,9.13
2023-04-03T02:49:36.658Z,8.90
2023-04-03T02:52:03.482Z,8.98
2023-04-03T02:54:31.640Z,7.97
2023-04-03T02:56:59.044Z,9.43
2023-04-03T02:59:26.205Z,8.98
2023-04-03T03:01:53.415Z,9.55
2023-04-03T03:04:20.359Z,9.25
2023-04-03T03:06:47.906Z,9.20
2023-04-03T03:09:15.701Z,9.35
2023-04-03T03:11:42.658Z,10.45
2023-04-03T03:14:09.549Z,11.10
2023-04-03T03:16:36.597Z,11.85
2023-04-03T03:19:03.743Z,12.07
2023-04-03T03:21:30.789Z,13.93
2023-04-03T03:23:57.606Z,15.35
2023-04-03T03:26:24.798Z,13.55
2023-04-03T03:28:52.006Z,12.00
2023-04-03T03:31:18.887Z,11.80
2023-04-03T03:33:45.748Z,12.10
2023-04-03T03:36:12.771Z,11.55
2023-04-03T03:38:39.752Z,11.48
2023-04-03T03:41:06.642Z,10.52
2023-04-03T03:43:33.573Z,10.05
2023-04-03T03:46:00.433Z,10.93
2023-04-03T03:48:27.281Z,10.73
2023-04-03T03:50:54.078Z,11.50
2023-04-03T03:53:21.073Z,11.00
2023-04-03T03:55:47.944Z,11.63
2023-04-03T03:58:14.759Z,12.32
2023-04-03T04:00:41.601Z,11.55
2023-04-03T04:03:08.588Z,11.35
2023-04-03T04:05:35.769Z,12.63
2023-04-03T04:08:02.840Z,10.88
2023-04-03T04:10:29.788Z,11.82
2023-04-03T04:12:58.558Z,11.90
2023-04-03T04:15:26.770Z,12.20
2023-04-03T04:17:54.453Z,12.25
2023-04-03T04:20:21.630Z,12.60
2023-04-03T04:22:48.551Z,12.43
2023-04-03T04:25:15.555Z,12.38
2023-04-03T04:27:42.452Z,13.77
2023-04-03T04:30:10.819Z,12.30
2023-04-03T04:32:38.236Z,12.68
2023-04-03T04:35:06.044Z,12.70
2023-04-03T04:37:33.043Z,13.23
2023-04-03T04:40:00.268Z,13.05
2023-04-03T04:42:27.264Z,13.65
2023-04-03T04:44:54.056Z,13.55
2023-04-03T04:47:21.266Z,13.80
2023-04-03T04:49:48.572Z,14.45
2023-04-03T04:52:15.720Z,13.85
2023-04-03T04:54:42.522Z,13.68
2023-04-03T04:57:09.483Z,13.73
2023-04-03T04:59:36.422Z,14.00
2023-04-03T05:02:03.307Z,13.77
2023-04-03T05:04:30.388Z,13.75
2023-04-03T05:06:57.245Z,13.45
2023-04-03T05:09:24.109Z,13.85
2023-04-03T05:11:50.929Z,14.13
2023-04-03T05:14:18.040Z,14.15
2023-04-03T05:16:44.827Z,14.32
2023-04-03T05:19:11.605Z,14.30
2023-04-03T05:21:38.478Z,13.70
2023-04-03T05:24:05.785Z,14.68
2023-04-03T05:26:32.900Z,13.95
2023-04-03T05:28:59.738Z,14.25
2023-04-03T05:31:26.728Z,14.40
2023-04-03T05:33:53.621Z,14.52
2023-04-03T05:36:20.506Z,14.82
2023-04-03T05:38:48.145Z,14.93
2023-04-03T05:41:16.153Z,14.82
2023-04-03T05:43:42.962Z,14.80
2023-04-03T05:46:17.871Z,13.63
2023-04-03T05:48:45.749Z,12.75
2023-04-03T05:51:26.971Z,13.65
2023-04-03T05:54:00.676Z,13.65
2023-04-03T05:56:27.648Z,12.85
2023-04-03T05:58:54.408Z,13.73
2023-04-03T06:01:21.626Z,14.70
2023-04-03T06:03:48.621Z,13.02
2023-04-03T06:06:16.449Z,13.15
2023-04-03T06:08:44.750Z,13.63
2023-04-03T06:11:11.820Z,13.00
2023-04-03T06:13:39.262Z,12.13
2023-04-03T06:16:06.703Z,12.60
2023-04-03T06:18:33.555Z,13.50
2023-04-03T06:21:01.846Z,11.80
2023-04-03T06:23:28.814Z,11.25
2023-04-03T06:25:55.746Z,10.82
2023-04-03T06:28:22.787Z,10.95
2023-04-03T06:30:49.791Z,10.38
2023-04-03T06:33:16.827Z,10.32
2023-04-03T06:35:43.663Z,9.63
2023-04-03T06:38:10.973Z,9.82
2023-04-03T06:40:38.046Z,9.68
2023-04-03T06:43:05.412Z,9.32
2023-04-03T06:45:32.441Z,8.80
2023-04-03T06:47:59.475Z,8.88
2023-04-03T06:50:26.390Z,8.35
2023-04-03T06:52:53.307Z,7.88
2023-04-03T06:55:21.561Z,7.55
2023-04-03T06:57:48.424Z,7.88
2023-04-03T07:00:15.832Z,8.38
2023-04-03T07:02:42.963Z,6.72
2023-04-03T07:05:10.064Z,7.30
2023-04-03T07:07:37.062Z,6.53
2023-04-03T07:10:07.250Z,7.13
2023-04-03T07:12:34.221Z,6.57
2023-04-03T07:15:01.036Z,6.85
2023-04-03T07:17:28.194Z,6.30
2023-04-03T07:19:55.042Z,5.75
2023-04-03T07:22:22.115Z,5.40
2023-04-03T07:24:48.970Z,5.47
2023-04-03T07:27:15.849Z,5.82
2023-04-03T07:29:43.816Z,6.38
2023-04-03T07:32:12.018Z,5.38
2023-04-03T07:34:38.891Z,5.32
2023-04-03T07:37:06.015Z,4.57
2023-04-03T07:39:33.284Z,5.13
2023-04-03T07:42:00.760Z,5.38
2023-04-03T07:44:28.303Z,4.72
2023-04-03T07:46:57.092Z,4.55
2023-04-03T07:49:27.334Z,4.38
2023-04-03T07:51:54.161Z,4.22
2023-04-03T07:54:21.007Z,4.25
2023-04-03T07:56:49.205Z,3.95
2023-04-03T07:59:16.463Z,4.40
2023-04-03T08:01:43.400Z,4.00
2023-04-03T08:04:10.247Z,3.67
2023-04-03T08:06:45.670Z,3.60
2023-04-03T08:09:15.327Z,4.15
2023-04-03T08:11:42.542Z,3.22
2023-04-03T08:14:09.407Z,3.78
2023-04-03T08:16:36.519Z,3.75
2023-04-03T08:19:05.195Z,3.45
2023-04-03T08:21:34.163Z,3.70
2023-04-03T08:24:00.999Z,3.10
2023-04-03T08:26:28.308Z,2.65
2023-04-03T08:28:55.372Z,3.05
2023-04-03T08:31:22.490Z,2.88
2023-04-03T08:33:50.280Z,2.90
2023-04-03T08:36:23.554Z,2.65
2023-04-03T08:38:51.524Z,2.75
2023-04-03T08:41:32.816Z,2.70
2023-04-03T08:44:03.785Z,2.33
2023-04-03T08:46:49.434Z,2.55
2023-04-03T08:49:56.702Z,2.80
2023-04-03T08:52:32.320Z,2.55
2023-04-03T08:55:02.380Z,2.50
2023-04-03T08:57:36.652Z,2.22
2023-04-03T09:00:19.510Z,2.67
2023-04-03T09:02:49.404Z,1.77
2023-04-03T09:05:24.195Z,1.77
2023-04-03T09:08:05.355Z,2.00
2023-04-03T09:10:36.305Z,1.90
2023-04-03T09:13:17.456Z,2.10
2023-04-03T09:15:45.628Z,1.90
2023-04-03T09:18:29.942Z,2.95
2023-04-03T09:21:21.840Z,2.00
2023-04-03T09:23:56.610Z,2.00
2023-04-03T09:26:42.030Z,1.98
2023-04-03T09:29:09.754Z,1.98
2023-04-03T09:31:43.080Z,1.90
2023-04-03T09:34:36.618Z,1.73
2023-04-03T09:37:09.753Z,2.42
2023-04-03T09:39:55.177Z,2.30
2023-04-03T09:42:26.671Z,1.67
2023-04-03T09:45:05.855Z,2.47
2023-04-03T09:47:37.670Z,3.55
2023-04-03T09:50:16.355Z,1.83
2023-04-03T09:52:45.358Z,1.60
2023-04-03T09:55:16.507Z,1.80
2023-04-03T09:57:43.998Z,2.28
2023-04-03T10:00:33.384Z,1.90
2023-04-03T10:03:01.523Z,2.33
2023-04-03T10:05:40.112Z,2.00
2023-04-03T10:08:11.744Z,1.88
2023-04-03T10:10:39.451Z,1.70
2023-04-03T10:13:21.504Z,1.75
2023-04-03T10:15:56.656Z,1.30
2023-04-03T10:18:53.059Z,1.65
2023-04-03T10:21:27.660Z,2.10
2023-04-03T10:24:19.354Z,1.65
2023-04-03T10:27:07.486Z,1.30
2023-04-03T10:29:58.639Z,1.58
2023-04-03T10:32:40.370Z,1.48
2023-04-03T10:35:38.561Z,1.40
2023-04-03T10:38:32.310Z,1.63
2023-04-03T10:41:07.951Z,1.50
2023-04-03T10:43:50.963Z,1.50
2023-04-03T10:46:24.860Z,1.30
2023-04-03T10:49:09.386Z,2.55
2023-04-03T10:51:39.294Z,1.48
2023-04-03T10:54:09.148Z,1.65
2023-04-03T10:56:43.072Z,1.75
2023-04-03T10:59:19.038Z,1.30
2023-04-03T11:01:50.549Z,1.40
2023-04-03T11:04:20.572Z,1.05
2023-04-03T11:06:52.900Z,1.33
2023-04-03T11:09:29.646Z,1.00
2023-04-03T11:12:05.083Z,0.90
2023-04-03T11:14:36.100Z,1.20
2023-04-03T11:17:24.970Z,0.90
2023-04-03T11:20:04.053Z,1.00
2023-04-03T11:22:37.280Z,0.80
2023-04-03T11:25:13.229Z,0.98
2023-04-03T11:27:47.554Z,0.90
2023-04-03T11:30:34.548Z,0.95
2023-04-03T11:33:33.828Z,1.02
2023-04-03T11:36:25.488Z,1.20
2023-04-03T11:38:57.638Z,1.02
2023-04-03T11:41:32.198Z,0.90
2023-04-03T11:44:25.405Z,1.08
2023-04-03T11:46:58.789Z,1.10
2023-04-03T11:50:02.193Z,1.05
2023-04-03T11:52:59.527Z,1.38
2023-04-03T11:55:32.389Z,0.68
2023-04-03T11:57:59.222Z,0.80
2023-04-03T12:01:10.997Z,0.70
2023-04-03T12:03:40.765Z,0.93
2023-04-03T12:06:17.791Z,0.52
2023-04-03T12:08:57.552Z,0.70
2023-04-03T12:11:32.340Z,0.98
2023-04-03T12:13:59.257Z,0.70
2023-04-03T12:16:43.846Z,0.95
2023-04-03T12:19:17.031Z,0.70
2023-04-03T12:21:47.257Z,0.98
2023-04-03T12:24:17.086Z,0.93
2023-04-03T12:27:15.199Z,1.10
2023-04-03T12:30:04.980Z,0.80
2023-04-03T12:32:40.651Z,0.80
2023-04-03T12:35:16.083Z,0.85
2023-04-03T12:38:04.922Z,0.90
2023-04-03T12:40:43.964Z,1.00
2023-04-03T12:43:26.140Z,0.98
2023-04-03T12:45:57.917Z,0.90
2023-04-03T12:48:27.715Z,0.75
2023-04-03T12:50:55.914Z,1.10
2023-04-03T12:53:31.236Z,1.00
2023-04-03T12:56:18.913Z,1.00
2023-04-03T12:58:45.980Z,1.30
2023-04-03T13:01:17.918Z,1.10
2023-04-03T13:03:50.029Z,1.30
2023-04-03T13:06:28.828Z,1.30
2023-04-03T13:08:58.937Z,0.95
2023-04-03T13:11:29.056Z,1.10
2023-04-03T13:14:01.394Z,0.95
2023-04-03T13:16:28.919Z,1.33
2023-04-03T13:18:56.517Z,1.30
2023-04-03T13:21:28.008Z,1.00
2023-04-03T13:24:13.783Z,1.30
2023-04-03T13:26:42.545Z,0.90
2023-04-03T13:29:30.968Z,1.10
2023-04-03T13:31:59.080Z,1.40
2023-04-03T13:34:28.849Z,0.90
2023-04-03T13:37:00.365Z,1.00
2023-04-03T13:39:33.419Z,1.10
2023-04-03T13:42:03.763Z,1.20
2023-04-03T13:44:36.389Z,1.00
2023-04-03T13:47:12.384Z,0.70
2023-04-03T13:49:42.025Z,1.20
2023-04-03T13:52:36.603Z,0.82
2023-04-03T13:55:24.753Z,0.90
2023-04-03T13:58:02.815Z,0.70
2023-04-03T14:00:38.863Z,1.30
2023-04-03T14:05:46.902Z,1.08
2023-04-03T14:08:13.904Z,1.00
2023-04-03T14:10:41.199Z,1.10
2023-04-03T14:13:10.080Z,1.00
2023-04-03T14:15:37.070Z,0.80
2023-04-03T14:18:06.475Z,1.20
2023-04-03T14:20:34.666Z,0.77
2023-04-03T14:23:01.575Z,0.93
2023-04-03T14:25:28.729Z,1.33
2023-04-03T14:27:56.034Z,0.90
2023-04-03T14:30:29.744Z,1.17
2023-04-03T14:32:57.032Z,1.00
2023-04-03T14:35:24.590Z,1.25
2023-04-03T14:37:53.285Z,1.20
2023-04-03T14:40:26.977Z,1.80
2023-04-03T14:42:56.303Z,0.80
2023-04-03T14:45:24.572Z,1.05
2023-04-03T14:47:54.462Z,1.00
2023-04-03T14:50:26.698Z,1.00
2023-04-03T14:52:56.253Z,0.85
2023-04-03T14:55:26.028Z,0.95
2023-04-03T14:57:53.924Z,1.00
2023-04-03T15:00:22.813Z,1.00
2023-04-03T15:02:50.275Z,1.27
2023-04-03T15:05:17.723Z,0.90
2023-04-03T15:07:53.275Z,1.25
2023-04-03T15:10:24.789Z,1.27
2023-04-03T15:12:52.030Z,0.95
2023-04-03T15:15:21.088Z,1.20
2023-04-03T15:17:51.669Z,0.90
2023-04-03T15:20:24.858Z,1.00
2023-04-03T15:22:52.053Z,1.10
2023-04-03T15:25:19.243Z,1.00
2023-04-03T15:27:46.102Z,1.13
2023-04-03T15:30:16.882Z,1.13
2023-04-03T15:32:43.936Z,1.00
2023-04-03T15:35:11.301Z,0.93
2023-04-03T15:37:38.184Z,1.10
2023-04-03T15:40:06.671Z,0.68
2023-04-03T15:42:33.773Z,1.10
2023-04-03T15:45:00.754Z,1.30
2023-04-03T15:47:28.727Z,1.33
2023-04-03T15:49:56.617Z,1.00
2023-04-03T15:52:23.484Z,1.30
2023-04-03T15:54:50.941Z,1.10
2023-04-03T15:57:18.255Z,1.33
2023-04-03T15:59:45.081Z,1.33
2023-04-03T16:02:14.328Z,1.20
2023-04-03T16:04:41.786Z,1.55
2023-04-03T16:07:08.718Z,1.30
2023-04-03T16:09:36.300Z,1.30
2023-04-03T16:12:03.674Z,1.15
2023-04-03T16:14:31.326Z,1.50
2023-04-03T16:17:01.293Z,1.30
2023-04-03T16:19:28.294Z,1.50
2023-04-03T16:21:56.420Z,1.40
2023-04-03T16:24:23.679Z,1.45
2023-04-03T16:26:50.634Z,1.40
2023-04-03T16:29:17.621Z,1.50
2023-04-03T16:31:44.537Z,1.15
2023-04-03T16:34:12.197Z,1.50
2023-04-03T16:36:39.141Z,1.23
2023-04-03T16:39:06.060Z,1.38
2023-04-03T16:41:33.181Z,1.42
2023-04-03T16:44:00.115Z,1.40
2023-04-03T16:46:27.242Z,1.70
2023-04-03T16:48:54.197Z,1.58
2023-04-03T16:51:21.399Z,1.35
2023-04-03T16:53:48.258Z,1.20
2023-04-03T16:56:15.220Z,1.52
2023-04-03T16:58:42.216Z,1.45
2023-04-03T17:01:15.381Z,1.70
2023-04-03T17:03:42.382Z,1.50
2023-04-03T17:06:15.693Z,1.50
2023-04-03T17:08:43.349Z,1.50
2023-04-03T17:11:10.324Z,1.35
2023-04-03T17:13:37.260Z,1.55
2023-04-03T17:16:06.812Z,1.70
2023-04-03T17:18:35.313Z,1.60
2023-04-03T17:21:03.176Z,1.60
2023-04-03T17:23:30.613Z,1.67
2023-04-03T17:25:57.714Z,1.70
2023-04-03T17:28:29.033Z,1.60
2023-04-03T17:31:00.623Z,1.70
2023-04-03T17:33:30.965Z,1.50
2023-04-03T17:35:58.954Z,1.55
2023-04-03T17:38:25.965Z,1.67
2023-04-03T17:40:52.832Z,1.70
2023-04-03T17:43:19.668Z,1.58
2023-04-03T17:45:46.523Z,1.90
2023-04-03T17:48:13.547Z,1.85
2023-04-03T17:50:40.522Z,2.10
2023-04-03T17:53:07.369Z,1.73
2023-04-03T17:55:34.281Z,1.80
2023-04-03T17:58:01.185Z,1.85
2023-04-03T18:00:28.023Z,1.40
2023-04-03T18:02:55.330Z,1.70
2023-04-03T18:05:22.603Z,1.80
2023-04-03T18:07:50.121Z,1.95
2023-04-03T18:10:17.403Z,2.30
2023-04-03T18:12:44.981Z,2.30
2023-04-03T18:15:12.845Z,5.78
2023-04-03T18:17:39.664Z,2.90
2023-04-03T18:20:07.010Z,2.55
2023-04-03T18:22:34.126Z,2.60
2023-04-03T18:25:00.957Z,1.90
2023-04-03T18:27:28.179Z,2.70
2023-04-03T18:30:00.476Z,2.08
2023-04-03T18:32:28.268Z,1.60
2023-04-03T18:34:56.252Z,2.20
2023-04-03T18:37:24.361Z,2.05
2023-04-03T18:39:51.139Z,1.88
2023-04-03T18:42:21.690Z,1.98
2023-04-03T18:44:52.760Z,2.38
2023-04-03T18:47:19.804Z,2.30
2023-04-03T18:49:46.932Z,1.95
2023-04-03T18:52:13.837Z,2.05
2023-04-03T18:54:41.805Z,1.90
2023-04-03T18:57:08.944Z,2.08
2023-04-03T18:59:35.895Z,1.92
2023-04-03T19:02:02.831Z,1.92
2023-04-03T19:04:30.728Z,1.80
2023-04-03T19:06:57.604Z,1.65
2023-04-03T19:09:26.417Z,2.30
2023-04-03T19:11:53.256Z,1.73
2023-04-03T19:14:20.242Z,2.05
2023-04-03T19:16:47.149Z,2.00
2023-04-03T19:19:14.122Z,2.40
2023-04-03T19:21:41.995Z,2.10
2023-04-03T19:24:11.034Z,2.22
2023-04-03T19:26:38.309Z,2.55
2023-04-03T19:29:05.262Z,2.55
2023-04-03T19:31:33.897Z,2.65
2023-04-03T19:34:02.611Z,2.67
2023-04-03T19:36:30.566Z,2.30
2023-04-03T19:38:57.416Z,2.53
2023-04-03T19:41:27.410Z,2.05
2023-04-03T19:43:56.330Z,2.00
2023-04-03T19:46:28.519Z,3.22
2023-04-03T19:48:55.553Z,2.00
2023-04-03T19:51:22.531Z,2.42
2023-04-03T19:53:49.496Z,2.45
2023-04-03T19:56:17.052Z,2.90
2023-04-03T19:58:44.361Z,2.40
2023-04-03T20:01:11.525Z,2.35
2023-04-03T20:03:39.213Z,2.50
2023-04-03T20:06:06.091Z,2.30
2023-04-03T20:08:32.935Z,2.15
2023-04-03T20:11:00.243Z,2.33
2023-04-03T20:13:27.384Z,2.10
2023-04-03T20:15:54.224Z,1.85
2023-04-03T20:18:21.478Z,2.25
2023-04-03T20:20:57.033Z,2.25
2023-04-03T20:23:24.340Z,2.22
2023-04-03T20:26:05.879Z,2.60
2023-04-03T20:28:36.406Z,2.38
2023-04-03T20:31:03.965Z,2.28
2023-04-03T20:33:30.935Z,2.80
2023-04-03T20:35:58.528Z,2.70
2023-04-03T20:38:25.764Z,2.33
2023-04-03T20:40:52.781Z,2.30
2023-04-03T20:43:21.742Z,2.25
2023-04-03T20:45:49.358Z,2.35
2023-04-03T20:48:18.104Z,2.20
2023-04-03T20:50:46.573Z,2.40
2023-04-03T20:53:14.909Z,2.00
2023-04-03T20:55:42.361Z,2.63
2023-04-03T20:58:09.501Z,2.30
2023-04-03T21:00:38.014Z,3.17
2023-04-03T21:03:06.056Z,2.17
2023-04-03T21:05:34.631Z,2.95
2023-04-03T21:08:40.293Z,3.20
2023-04-03T21:11:44.782Z,2.22
2023-04-03T21:14:49.566Z,2.40
2023-04-03T21:17:16.572Z,2.55
2023-04-03T21:19:46.557Z,2.50
2023-04-03T21:22:14.131Z,2.60
2023-04-03T21:24:41.477Z,2.60
2023-04-03T21:27:08.595Z,2.28
2023-04-03T21:29:35.430Z,2.53
2023-04-03T21:32:02.433Z,2.40
2023-04-03T21:34:31.042Z,2.40
2023-04-03T21:37:06.043Z,2.67
2023-04-03T21:39:33.492Z,2.28
2023-04-03T21:42:00.725Z,3.33
2023-04-03T21:44:30.406Z,2.50
2023-04-03T21:46:57.268Z,2.38
2023-04-03T21:49:25.797Z,2.40
2023-04-03T21:51:52.779Z,2.42
2023-04-03T21:54:20.608Z,2.30
2023-04-03T21:56:52.326Z,2.35
2023-04-03T21:59:19.363Z,2.53
2023-04-03T22:01:46.330Z,2.15
2023-04-03T22:04:13.438Z,2.47
2023-04-03T22:06:40.912Z,2.42
2023-04-03T22:09:08.529Z,2.35
2023-04-03T22:11:37.320Z,1.92
2023-04-03T22:14:04.124Z,2.28
2023-04-03T22:16:30.968Z,2.33
2023-04-03T22:19:01.412Z,2.40
2023-04-03T22:21:28.303Z,3.38
2023-04-03T22:23:55.109Z,2.40
2023-04-03T22:26:22.113Z,2.80
2023-04-03T22:28:49.207Z,2.22
2023-04-03T22:31:16.933Z,2.63
2023-04-03T22:33:45.050Z,2.40
2023-04-03T22:36:13.229Z,2.35
2023-04-03T22:38:43.768Z,2.25
2023-04-03T22:41:10.858Z,1.98
2023-04-03T22:43:38.220Z,2.50
2023-04-03T22:46:08.564Z,2.42
2023-04-03T22:48:36.804Z,2.55
2023-04-03T22:51:07.529Z,2.17
2023-04-03T22:53:35.061Z,3.03
2023-04-03T22:56:03.639Z,2.33
2023-04-03T22:58:30.642Z,2.17
2023-04-03T23:01:25.200Z,2.70
2023-04-03T23:03:52.070Z,1.98
2023-04-03T23:06:18.914Z,2.15
2023-04-03T23:08:45.709Z,3.35
2023-04-03T23:11:12.823Z,2.42
2023-04-03T23:13:39.671Z,2.38
2023-04-03T23:16:08.015Z,2.05
2023-04-03T23:18:35.010Z,1.95
2023-04-03T23:21:03.690Z,2.00
2023-04-03T23:23:31.242Z,2.25
2023-04-03T23:25:59.874Z,2.30
2023-04-03T23:28:27.768Z,1.88
2023-04-03T23:31:00.354Z,2.10
2023-04-03T23:33:28.130Z,2.40
2023-04-03T23:35:54.995Z,2.67
2023-04-03T23:38:22.046Z,2.15
2023-04-03T23:40:48.925Z,2.65
2023-04-03T23:43:16.252Z,2.20
2023-04-03T23:45:45.035Z,2.70
2023-04-03T23:48:11.959Z,2.92
2023-04-03T23:50:38.892Z,2.38
2023-04-03T23:53:05.875Z,2.60
2023-04-03T23:55:33.178Z,2.35
2023-04-03T23:58:00.040Z,2.50
